Time;durP1;ratioP1;P1;durP2;ratioP2;P2;SDS_P1;SDS_P2;PMS_P1;PMS_P2;Temp;Humidity;BMP_temperature;BMP_pressure;BME280_temperature;BME280_humidity;BME280_pressure;Samples;Min_cycle;Max_cycle;Signal;HPM_P1;HPM_P2
2024/03/08 00:00:40;;;;;;;;;;;;;;;;;;137377;1276;22214;-80
2024/03/08 00:04:02;;;;;;;;;;;;;;;;;;137371;1276;22905;-82
2024/03/08 00:07:05;;;;;;;;;;;;;;;;;;137416;1276;22245;-80
2024/03/08 00:10:10;;;;;;;;;;;;;;;;;;137381;1263;22159;-81
2024/03/08 00:13:13;;;;;;;;;;;;;;;;;;137380;1254;22355;-81
2024/03/08 00:16:15;;;;;;;;;;;;;;;;;;137391;1276;22381;-80
2024/03/08 00:19:18;;;;;;;;;;;;;;;;;;137384;1276;22260;-81
2024/03/08 00:22:23;;;;;;;;;;;;;;;;;;137410;1276;22270;-80
2024/03/08 00:25:26;;;;;;;;;;;;;;;;;;137339;1276;22677;-80
2024/03/08 00:28:28;;;;;;;;;;;;;;;;;;137392;1276;22180;-78
2024/03/08 00:31:31;;;;;;;;;;;;;;;;;;137392;1276;22249;-80
2024/03/08 00:34:34;;;;;;;;;;;;;;;;;;137206;1278;22424;-79
2024/03/08 00:37:37;;;;;;;;;;;;;;;;;;137248;1278;22249;-81
2024/03/08 00:40:40;;;;;;;;;;;;;;;;;;137258;1278;22176;-81
2024/03/08 00:43:47;;;;;;;;;;;;;;;;;;137232;1278;22250;-80
2024/03/08 00:46:49;;;;;;;;;;;;;;;;;;137296;1278;22230;-80
2024/03/08 00:49:53;;;;;;;;;;;;;;;;;;137224;1278;22266;-81
2024/03/08 00:52:57;;;;;;;;;;;;;;;;;;137197;1278;22256;-80
2024/03/08 00:56:09;;;;;;;;;;;;;;;;;;137212;1278;22277;-80
2024/03/08 00:59:14;;;;;;;;;;;;;;;;;;137247;1278;22137;-80
2024/03/08 01:02:18;;;;;;;;;;;;;;;;;;137277;1278;22658;-81
2024/03/08 01:05:24;;;;;;;;;;;;;;;;;;137242;1278;22838;-81
2024/03/08 01:08:27;;;;;;;;;;;;;;;;;;137222;1278;22223;-80
2024/03/08 01:11:29;;;;;;;;;;;;;;;;;;137234;1278;22260;-80
2024/03/08 01:14:32;;;;;;;;;;;;;;;;;;137157;1278;22671;-79
2024/03/08 01:17:35;;;;;;;;;;;;;;;;;;137134;1278;22273;-78
2024/03/08 01:20:37;;;;;;;;;;;;;;;;;;137227;1278;22667;-78
2024/03/08 01:23:40;;;;;;;;;;;;;;;;;;137148;1278;22168;-78
2024/03/08 01:26:42;;;;;;;;;;;;;;;;;;137235;1278;22273;-79
2024/03/08 01:29:48;;;;;;;;;;;;;;;;;;137240;1278;22264;-78
2024/03/08 01:32:50;;;;;;;;;;;;;;;;;;137339;1276;22354;-78
2024/03/08 01:35:54;;;;;;;;;;;;;;;;;;137340;1276;22375;-79
2024/03/08 01:38:57;;;;;;;;;;;;;;;;;;137368;1276;22246;-79
2024/03/08 01:42:02;;;;;;;;;;;;;;;;;;137431;1276;22272;-85
2024/03/08 01:45:05;;;;;;;;;;;;;;;;;;137411;1276;22177;-84
2024/03/08 01:48:08;;;;;;;;;;;;;;;;;;137427;1276;22355;-83
2024/03/08 01:51:11;;;;;;;;;;;;;;;;;;137412;1276;22154;-83
2024/03/08 01:54:16;;;;;;;;;;;;;;;;;;137381;1276;22190;-84
2024/03/08 01:57:18;;;;;;;;;;;;;;;;;;137423;1276;22326;-84
2024/03/08 02:00:21;;;;;;;;;;;;;;;;;;137390;1276;22244;-84
2024/03/08 02:03:25;;;;;;;;;;;;;;;;;;137409;1276;22280;-83
2024/03/08 02:06:28;;;;;;;;;;;;;;;;;;137396;1276;22346;-84
2024/03/08 02:09:30;;;;;;;;;;;;;;;;;;137466;1276;22319;-84
2024/03/08 02:12:33;;;;;;;;;;;;;;;;;;137402;1276;22325;-83
2024/03/08 02:15:36;;;;;;;;;;;;;;;;;;137373;1276;22293;-80
2024/03/08 02:18:41;;;;;;;;;;;;;;;;;;137388;1276;22323;-82
2024/03/08 02:21:43;;;;;;;;;;;;;;;;;;137399;1276;22743;-80
2024/03/08 02:24:46;;;;;;;;;;;;;;;;;;137412;1276;22259;-81
2024/03/08 02:27:48;;;;;;;;;;;;;;;;;;137383;1276;22257;-81
2024/03/08 02:30:54;;;;;;;;;;;;;;;;;;137449;1276;22270;-81
2024/03/08 02:33:57;;;;;;;;;;;;;;;;;;137377;1276;22427;-82
2024/03/08 02:36:59;;;;;;;;;;;;;;;;;;137370;1276;22179;-82
2024/03/08 02:40:02;;;;;;;;;;;;;;;;;;137404;1276;22851;-81
2024/03/08 02:43:05;;;;;;;;;;;;;;;;;;137419;1276;22269;-80
2024/03/08 02:46:07;;;;;;;;;;;;;;;;;;137402;1276;22191;-81
2024/03/08 02:49:10;;;;;;;;;;;;;;;;;;137399;1276;22175;-81
2024/03/08 02:52:13;;;;;;;;;;;;;;;;;;137374;1276;22381;-81
2024/03/08 02:55:16;;;;;;;;;;;;;;;;;;137376;1276;22557;-82
2024/03/08 02:58:18;;;;;;;;;;;;;;;;;;137341;1276;22610;-80
2024/03/08 03:01:22;;;;;;;;;;;;;;;;;;137395;1276;22278;-81
2024/03/08 03:04:24;;;;;;;;;;;;;;;;;;137369;1276;22364;-80
2024/03/08 03:07:27;;;;;;;;;;;;;;;;;;137412;1276;22290;-80
2024/03/08 03:10:29;;;;;;;;;;;;;;;;;;137391;1276;22270;-79
2024/03/08 03:13:33;;;;;;;;;;;;;;;;;;137409;1276;22306;-79
2024/03/08 03:16:36;;;;;;;;;;;;;;;;;;137464;1276;22248;-79
2024/03/08 03:19:39;;;;;;;;;;;;;;;;;;137524;1276;22252;-77
2024/03/08 03:22:47;;;;;;;;;;;;;;;;;;137462;1276;22456;-79
2024/03/08 03:25:49;;;;;;;;;;;;;;;;;;137408;1276;22194;-78
2024/03/08 03:28:52;;;;;;;;;;;;;;;;;;137359;1276;22281;-78
2024/03/08 03:31:54;;;;;;;;;;;;;;;;;;137345;1276;22378;-79
2024/03/08 03:34:57;;;;;;;;;;;;;;;;;;137352;1276;22360;-79
2024/03/08 03:38:06;;;;;;;;;;;;;;;;;;137350;1276;22251;-79
2024/03/08 03:41:10;;;;;;;;;;;;;;;;;;137412;1276;22180;-79
2024/03/08 03:44:12;;;;;;;;;;;;;;;;;;137387;1276;22715;-79
2024/03/08 03:47:21;;;;;;;;;;;;;;;;;;137410;1276;22317;-78
2024/03/08 03:50:23;;;;;;;;;;;;;;;;;;137400;1276;22351;-79
2024/03/08 03:53:27;;;;;;;;;;;;;;;;;;137370;1276;22849;-78
2024/03/08 03:56:30;;;;;;;;;;;;;;;;;;137333;1276;22192;-79
2024/03/08 03:59:32;;;;;;;;;;;;;;;;;;137329;1276;22226;-78
2024/03/08 04:02:35;;;;;;;;;;;;;;;;;;137355;1276;22258;-78
2024/03/08 04:05:37;;;;;;;;;;;;;;;;;;137372;1276;22362;-79
2024/03/08 04:08:40;;;;;;;;;;;;;;;;;;137312;1276;22311;-79
2024/03/08 04:11:43;;;;;;;;;;;;;;;;;;137361;1276;22299;-78
2024/03/08 04:14:48;;;;;;;;;;;;;;;;;;137354;1276;22854;-79
2024/03/08 04:17:50;;;;;;;;;;;;;;;;;;137342;1276;22521;-79
2024/03/08 04:20:52;;;;;;;;;;;;;;;;;;137413;1276;22733;-79
2024/03/08 04:23:55;;;;;;;;;;;;;;;;;;137334;1276;22246;-78
2024/03/08 04:27:00;;;;;;;;;;;;;;;;;;137365;1276;22196;-79
2024/03/08 04:30:02;;;;;;;;;;;;;;;;;;137387;1276;22784;-78
2024/03/08 04:33:04;;;;;;;;;;;;;;;;;;137341;1276;22402;-79
2024/03/08 04:36:07;;;;;;;;;;;;;;;;;;137378;1276;22335;-79
2024/03/08 04:39:12;;;;;;;;;;;;;;;;;;137343;1276;22784;-79
2024/03/08 04:42:15;;;;;;;;;;;;;;;;;;137323;1276;22271;-79
2024/03/08 04:45:17;;;;;;;;;;;;;;;;;;137316;1276;22710;-78
2024/03/08 04:48:20;;;;;;;;;;;;;;;;;;137299;1276;22272;-80
2024/03/08 04:51:22;;;;;;;;;;;;;;;;;;137325;1276;22246;-84
2024/03/08 04:54:25;;;;;;;;;;;;;;;;;;137327;1276;22277;-78
2024/03/08 04:57:27;;;;;;;;;;;;;;;;;;137292;1276;22271;-78
2024/03/08 05:00:30;;;;;;;;;;;;;;;;;;137270;1276;22712;-78
2024/03/08 05:03:32;;;;;;;;;;;;;;;;;;137286;1276;22671;-79
2024/03/08 05:06:36;;;;;;;;;;;;;;;;;;137335;1276;22346;-79
2024/03/08 05:09:40;;;;;;;;;;;;;;;;;;137267;1276;22680;-79
2024/03/08 05:12:43;;;;;;;;;;;;;;;;;;137248;1276;22299;-77
2024/03/08 05:15:46;;;;;;;;;;;;;;;;;;137291;1276;22229;-79
2024/03/08 05:18:51;;;;;;;;;;;;;;;;;;137308;1276;22178;-81
2024/03/08 05:21:54;;;;;;;;;;;;;;;;;;137293;1263;22216;-79
2024/03/08 05:24:56;;;;;;;;;;;;;;;;;;137336;1276;22253;-81
2024/03/08 05:27:59;;;;;;;;;;;;;;;;;;137304;1276;22547;-81
2024/03/08 05:31:01;;;;;;;;;;;;;;;;;;137340;1276;22300;-80
2024/03/08 05:34:04;;;;;;;;;;;;;;;;;;137405;1276;22430;-81
2024/03/08 05:37:07;;;;;;;;;;;;;;;;;;137431;1276;22296;-79
2024/03/08 05:40:09;;;;;;;;;;;;;;;;;;137430;1269;22254;-80
2024/03/08 05:43:12;;;;;;;;;;;;;;;;;;137439;1276;22699;-80
2024/03/08 05:46:14;;;;;;;;;;;;;;;;;;137383;1276;22260;-81
2024/03/08 05:49:17;;;;;;;;;;;;;;;;;;137347;1276;22208;-81
2024/03/08 05:52:20;;;;;;;;;;;;;;;;;;137303;1276;22276;-82
2024/03/08 05:55:25;;;;;;;;;;;;;;;;;;137336;1276;22686;-78
2024/03/08 05:58:29;;;;;;;;;;;;;;;;;;137258;1276;22259;-78
2024/03/08 06:01:35;;;;;;;;;;;;;;;;;;137281;1276;22318;-77
2024/03/08 06:04:38;;;;;;;;;;;;;;;;;;137273;1276;22344;-79
2024/03/08 06:07:41;;;;;;;;;;;;;;;;;;137289;1276;22963;-78
2024/03/08 06:10:43;;;;;;;;;;;;;;;;;;137265;1276;22249;-82
2024/03/08 06:13:46;;;;;;;;;;;;;;;;;;137322;1277;22270;-82
2024/03/08 06:16:49;;;;;;;;;;;;;;;;;;137288;1276;22276;-83
2024/03/08 06:19:52;;;;;;;;;;;;;;;;;;137222;1277;22268;-79
2024/03/08 06:22:54;;;;;;;;;;;;;;;;;;137227;1276;22666;-80
2024/03/08 06:25:58;;;;;;;;;;;;;;;;;;137217;1277;22271;-79
2024/03/08 06:29:01;;;;;;;;;;;;;;;;;;137198;1276;22246;-80
2024/03/08 06:32:03;;;;;;;;;;;;;;;;;;137249;1276;22352;-80
2024/03/08 06:35:10;;;;;;;;;;;;;;;;;;137244;1276;22326;-78
2024/03/08 06:38:13;;;;;;;;;;;;;;;;;;137247;1276;22286;-78
2024/03/08 06:41:16;;;;;;;;;;;;;;;;;;137267;1277;22311;-81
2024/03/08 06:44:21;;;;;;;;;;;;;;;;;;137339;1276;22295;-80
2024/03/08 06:47:25;;;;;;;;;;;;;;;;;;137374;1276;22265;-79
2024/03/08 06:50:28;;;;;;;;;;;;;;;;;;137374;1276;22168;-80
2024/03/08 06:53:30;;;;;;;;;;;;;;;;;;137355;1276;22260;-80
2024/03/08 06:56:33;;;;;;;;;;;;;;;;;;137329;1276;22313;-81
2024/03/08 06:59:36;;;;;;;;;;;;;;;;;;137337;1276;22262;-80
2024/03/08 07:02:40;;;;;;;;;;;;;;;;;;137313;1277;22235;-79
2024/03/08 07:05:42;;;;;;;;;;;;;;;;;;137273;1277;22377;-79
2024/03/08 07:08:45;;;;;;;;;;;;;;;;;;137280;1277;22261;-79
2024/03/08 07:11:54;;;;;;;;;;;;;;;;;;137283;1277;22701;-80
2024/03/08 07:14:56;;;;;;;;;;;;;;;;;;137308;1276;23116;-81
2024/03/08 07:17:59;;;;;;;;;;;;;;;;;;137257;1277;22235;-79
2024/03/08 07:21:03;;;;;;;;;;;;;;;;;;137301;1276;22293;-79
2024/03/08 07:24:24;;;;;;;;;;;;;;;;;;137296;1270;22768;-79
2024/03/08 07:27:26;;;;;;;;;;;;;;;;;;137320;1277;22176;-80
2024/03/08 07:33:50;;;;;;;;;;;;;;;;;;137293;1277;22394;-80
2024/03/08 07:36:52;;;;;;;;;;;;;;;;;;137328;1277;22242;-80
2024/03/08 07:39:55;;;;;;;;;;;;;;;;;;137325;1266;22178;-79
2024/03/08 07:42:58;;;;;;;;;;;;;;;;;;137264;1277;22267;-81
2024/03/08 07:46:00;;;;;;;;;;;;;;;;;;137309;1277;22288;-81
2024/03/08 07:49:03;;;;;;;;;;;;;;;;;;137357;1277;22247;-80
2024/03/08 07:52:07;;;;;;;;;;;;;;;;;;137445;1277;22193;-78
2024/03/08 07:55:09;;;;;;;;;;;;;;;;;;137498;1276;22277;-79
2024/03/08 07:58:13;;;;;;;;;;;;;;;;;;137435;1277;22327;-80
2024/03/08 08:01:16;;;;;;;;;;;;;;;;;;137368;1277;22250;-81
2024/03/08 08:04:19;;;;;;;;;;;;;;;;;;137283;1277;22357;-81
2024/03/08 08:07:22;;;;;;;;;;;;;;;;;;137242;1276;22258;-80
2024/03/08 08:10:26;;;;;;;;;;;;;;;;;;137258;1276;22679;-79
2024/03/08 08:13:32;;;;;;;;;;;;;;;;;;137235;1277;22373;-80
2024/03/08 08:16:36;;;;;;;;;;;;;;;;;;137270;1276;22300;-80
2024/03/08 08:19:39;;;;;;;;;;;;;;;;;;137285;1276;23041;-81
2024/03/08 08:22:42;;;;;;;;;;;;;;;;;;137268;1277;22271;-81
2024/03/08 08:25:45;;;;;;;;;;;;;;;;;;137248;1277;22267;-80
2024/03/08 08:28:47;;;;;;;;;;;;;;;;;;137232;1277;23169;-81
2024/03/08 08:31:50;;;;;;;;;;;;;;;;;;137281;1270;22417;-81
2024/03/08 08:34:53;;;;;;;;;;;;;;;;;;137248;1277;23171;-81
2024/03/08 08:37:55;;;;;;;;;;;;;;;;;;137291;1276;22302;-80
2024/03/08 08:40:59;;;;;;;;;;;;;;;;;;137260;1277;22181;-80
2024/03/08 08:44:01;;;;;;;;;;;;;;;;;;137253;1276;22278;-81
2024/03/08 08:47:04;;;;;;;;;;;;;;;;;;137277;1276;22250;-82
2024/03/08 08:50:06;;;;;;;;;;;;;;;;;;137289;1276;22270;-81
2024/03/08 08:53:09;;;;;;;;;;;;;;;;;;137261;1276;22913;-82
2024/03/08 08:56:12;;;;;;;;;;;;;;;;;;137295;1276;22908;-83
2024/03/08 08:59:16;;;;;;;;;;;;;;;;;;137351;1276;23101;-83
2024/03/08 09:02:20;;;;;;;;;;;;;;;;;;137320;1276;22263;-81
2024/03/08 09:05:24;;;;;;;;;;;;;;;;;;137236;1276;22365;-81
2024/03/08 09:08:26;;;;;;;;;;;;;;;;;;137271;1276;22299;-80
2024/03/08 09:11:29;;;;;;;;;;;;;;;;;;137249;1276;22254;-82
2024/03/08 09:14:32;;;;;;;;;;;;;;;;;;137215;1276;22712;-80
2024/03/08 09:17:34;;;;;;;;;;;;;;;;;;137225;1276;22246;-82
2024/03/08 09:20:37;;;;;;;;;;;;;;;;;;137229;1276;22476;-81
2024/03/08 09:23:41;;;;;;;;;;;;;;;;;;137238;1276;22246;-81
2024/03/08 09:26:43;;;;;;;;;;;;;;;;;;137263;1273;22191;-82
2024/03/08 09:29:46;;;;;;;;;;;;;;;;;;137259;1276;22304;-81
2024/03/08 09:32:50;;;;;;;;;;;;;;;;;;137268;1276;22359;-80
2024/03/08 09:35:53;;;;;;;;;;;;;;;;;;137285;1276;22329;-81
2024/03/08 09:38:55;;;;;;;;;;;;;;;;;;137274;1277;22589;-82
2024/03/08 09:41:58;;;;;;;;;;;;;;;;;;137285;1276;22691;-81
2024/03/08 09:45:01;;;;;;;;;;;;;;;;;;137289;1276;22381;-81
2024/03/08 09:48:04;;;;;;;;;;;;;;;;;;137268;1276;22889;-82
2024/03/08 09:51:07;;;;;;;;;;;;;;;;;;137292;1276;22265;-81
2024/03/08 09:54:09;;;;;;;;;;;;;;;;;;137120;1276;22349;-82
2024/03/08 09:57:11;;;;;;;;;;;;;;;;;;137266;1276;22199;-82
2024/03/08 10:00:24;;;;;;;;;;;;;;;;;;137315;1276;22627;-83
2024/03/08 10:03:26;;;;;;;;;;;;;;;;;;137329;1276;22231;-81
2024/03/08 10:06:29;;;;;;;;;;;;;;;;;;137254;1276;22725;-83
2024/03/08 10:09:31;;;;;;;;;;;;;;;;;;137260;1276;22240;-82
2024/03/08 10:12:34;;;;;;;;;;;;;;;;;;137329;1276;22265;-84
2024/03/08 10:15:36;;;;;;;;;;;;;;;;;;137342;1276;22458;-80
2024/03/08 10:18:39;;;;;;;;;;;;;;;;;;137175;1276;22283;-82
2024/03/08 10:21:41;;;;;;;;;;;;;;;;;;137422;1276;22328;-84
2024/03/08 10:24:45;;;;;;;;;;;;;;;;;;137437;1276;22174;-81
2024/03/08 10:27:48;;;;;;;;;;;;;;;;;;137422;1276;22344;-80
2024/03/08 10:30:50;;;;;;;;;;;;;;;;;;137353;1276;22301;-82
2024/03/08 10:33:53;;;;;;;;;;;;;;;;;;137300;1276;22370;-80
2024/03/08 10:36:55;;;;;;;;;;;;;;;;;;137286;1276;22350;-81
2024/03/08 10:39:59;;;;;;;;;;;;;;;;;;137344;1265;22161;-79
2024/03/08 10:43:04;;;;;;;;;;;;;;;;;;137348;1266;22198;-81
2024/03/08 10:46:06;;;;;;;;;;;;;;;;;;137277;1277;22879;-81
2024/03/08 10:49:09;;;;;;;;;;;;;;;;;;137315;1277;22286;-82
2024/03/08 10:52:12;;;;;;;;;;;;;;;;;;137277;1277;22716;-81
2024/03/08 10:55:14;;;;;;;;;;;;;;;;;;137213;1277;22919;-82
2024/03/08 10:58:17;;;;;;;;;;;;;;;;;;137246;1277;22283;-83
2024/03/08 11:01:19;;;;;;;;;;;;;;;;;;137282;1276;22295;-83
2024/03/08 11:04:22;;;;;;;;;;;;;;;;;;137247;1277;22575;-82
2024/03/08 11:07:27;;;;;;;;;;;;;;;;;;137270;1277;22245;-84
2024/03/08 11:10:29;;;;;;;;;;;;;;;;;;137310;1272;22288;-84
2024/03/08 11:13:32;;;;;;;;;;;;;;;;;;137342;1277;22725;-81
2024/03/08 11:16:35;;;;;;;;;;;;;;;;;;137283;1277;22363;-80
2024/03/08 11:19:40;;;;;;;;;;;;;;;;;;137271;1277;22366;-81
2024/03/08 11:22:45;;;;;;;;;;;;;;;;;;137282;1276;22644;-83
2024/03/08 11:25:52;;;;;;;;;;;;;;;;;;137273;1276;22696;-82
2024/03/08 11:28:55;;;;;;;;;;;;;;;;;;137263;1277;22268;-81
2024/03/08 11:31:59;;;;;;;;;;;;;;;;;;137238;1277;22252;-80
2024/03/08 11:35:05;;;;;;;;;;;;;;;;;;137299;1277;22429;-82
2024/03/08 11:38:08;;;;;;;;;;;;;;;;;;137323;1277;22239;-81
2024/03/08 11:41:14;;;;;;;;;;;;;;;;;;137320;1277;22208;-82
2024/03/08 11:44:17;;;;;;;;;;;;;;;;;;137246;1277;22253;-82
2024/03/08 11:47:20;;;;;;;;;;;;;;;;;;137043;1277;280489;-82
2024/03/08 11:50:23;;;;;;;;;;;;;;;;;;137230;1277;22235;-79
2024/03/08 11:53:26;;;;;;;;;;;;;;;;;;137315;1277;22656;-81
2024/03/08 11:56:28;;;;;;;;;;;;;;;;;;137257;1277;22252;-83
2024/03/08 11:59:31;;;;;;;;;;;;;;;;;;137282;1273;22209;-81
2024/03/08 12:02:34;;;;;;;;;;;;;;;;;;137256;1276;22285;-81
2024/03/08 12:05:38;;;;;;;;;;;;;;;;;;137320;1274;22343;-82
2024/03/08 12:08:40;;;;;;;;;;;;;;;;;;137270;1266;22142;-81
2024/03/08 12:11:43;;;;;;;;;;;;;;;;;;137256;1276;22681;-80
2024/03/08 12:14:45;;;;;;;;;;;;;;;;;;137340;1277;22288;-82
2024/03/08 12:17:48;;;;;;;;;;;;;;;;;;137335;1277;22217;-78
2024/03/08 12:20:50;;;;;;;;;;;;;;;;;;137340;1277;22653;-80
2024/03/08 12:23:53;;;;;;;;;;;;;;;;;;137302;1276;22257;-82
2024/03/08 12:26:56;;;;;;;;;;;;;;;;;;137279;1276;22357;-81
2024/03/08 12:29:59;;;;;;;;;;;;;;;;;;137303;1276;22269;-81
2024/03/08 12:33:02;;;;;;;;;;;;;;;;;;137271;1273;22373;-81
2024/03/08 12:36:07;;;;;;;;;;;;;;;;;;137274;1276;22280;-82
2024/03/08 12:39:12;;;;;;;;;;;;;;;;;;137278;1276;22174;-80
2024/03/08 12:42:14;;;;;;;;;;;;;;;;;;137225;1276;22187;-81
2024/03/08 12:45:17;;;;;;;;;;;;;;;;;;137325;1276;22347;-82
2024/03/08 12:48:22;;;;;;;;;;;;;;;;;;137278;1276;22271;-81
2024/03/08 12:51:25;;;;;;;;;;;;;;;;;;137274;1272;22297;-83
2024/03/08 12:54:27;;;;;;;;;;;;;;;;;;137399;1276;22168;-82
2024/03/08 12:57:30;;;;;;;;;;;;;;;;;;137367;1276;22337;-82
2024/03/08 13:00:36;;;;;;;;;;;;;;;;;;137390;1276;22181;-81
2024/03/08 13:03:39;;;;;;;;;;;;;;;;;;137370;1276;22264;-82
2024/03/08 13:06:42;;;;;;;;;;;;;;;;;;137301;1277;22612;-83
2024/03/08 13:09:46;;;;;;;;;;;;;;;;;;137208;1276;22338;-79
2024/03/08 13:12:48;;;;;;;;;;;;;;;;;;137220;1277;22842;-78
2024/03/08 13:15:53;;;;;;;;;;;;;;;;;;137188;1277;22373;-79
2024/03/08 13:18:57;;;;;;;;;;;;;;;;;;137232;1276;22289;-79
2024/03/08 13:21:59;;;;;;;;;;;;;;;;;;137194;1276;22239;-78
2024/03/08 13:25:02;;;;;;;;;;;;;;;;;;137187;1276;22807;-78
2024/03/08 13:28:05;;;;;;;;;;;;;;;;;;137191;1276;22301;-77
2024/03/08 13:31:09;;;;;;;;;;;;;;;;;;137145;1276;22219;-80
2024/03/08 13:34:13;;;;;;;;;;;;;;;;;;137171;1276;22362;-80
2024/03/08 13:37:16;;;;;;;;;;;;;;;;;;137202;1276;22785;-80
2024/03/08 13:40:19;;;;;;;;;;;;;;;;;;137160;1277;22237;-79
2024/03/08 13:43:22;;;;;;;;;;;;;;;;;;137234;1276;22326;-80
2024/03/08 13:46:26;;;;;;;;;;;;;;;;;;137244;1276;22376;-80
2024/03/08 13:49:29;;;;;;;;;;;;;;;;;;137272;1273;22633;-81
2024/03/08 13:52:31;;;;;;;;;;;;;;;;;;137269;1276;22637;-82
2024/03/08 13:55:34;;;;;;;;;;;;;;;;;;137233;1276;22312;-80
2024/03/08 13:58:37;;;;;;;;;;;;;;;;;;137257;1276;22259;-81
2024/03/08 14:01:39;;;;;;;;;;;;;;;;;;137235;1276;22266;-81
2024/03/08 14:04:42;;;;;;;;;;;;;;;;;;137211;1276;22260;-80
2024/03/08 14:07:48;;;;;;;;;;;;;;;;;;137241;1276;22836;-80
2024/03/08 14:10:53;;;;;;;;;;;;;;;;;;137278;1276;22317;-82
2024/03/08 14:13:55;;;;;;;;;;;;;;;;;;137242;1276;22262;-82
2024/03/08 14:16:58;;;;;;;;;;;;;;;;;;137277;1276;22355;-80
2024/03/08 14:20:00;;;;;;;;;;;;;;;;;;137234;1276;22257;-81
2024/03/08 14:23:06;;;;;;;;;;;;;;;;;;137242;1276;22719;-81
2024/03/08 14:26:09;;;;;;;;;;;;;;;;;;137135;1276;22258;-80
2024/03/08 14:29:12;;;;;;;;;;;;;;;;;;137227;1276;23123;-82
2024/03/08 14:32:15;;;;;;;;;;;;;;;;;;137246;1276;22546;-80
2024/03/08 14:35:17;;;;;;;;;;;;;;;;;;137201;1276;22189;-81
2024/03/08 14:38:20;;;;;;;;;;;;;;;;;;137263;1276;22244;-80
2024/03/08 14:41:23;;;;;;;;;;;;;;;;;;137276;1273;22250;-81
2024/03/08 14:44:26;;;;;;;;;;;;;;;;;;137307;1276;22318;-82
2024/03/08 14:47:28;;;;;;;;;;;;;;;;;;137303;1276;22339;-83
2024/03/08 14:50:32;;;;;;;;;;;;;;;;;;137285;1276;22261;-80
2024/03/08 14:53:35;;;;;;;;;;;;;;;;;;137333;1276;22162;-80
2024/03/08 14:56:37;;;;;;;;;;;;;;;;;;137303;1276;22252;-80
2024/03/08 14:59:40;;;;;;;;;;;;;;;;;;137344;1276;22721;-79
2024/03/08 15:02:42;;;;;;;;;;;;;;;;;;137347;1276;22567;-80
2024/03/08 15:05:48;;;;;;;;;;;;;;;;;;137386;1276;22640;-80
2024/03/08 15:08:51;;;;;;;;;;;;;;;;;;137417;1276;22156;-80
2024/03/08 15:11:56;;;;;;;;;;;;;;;;;;137357;1276;22163;-79
2024/03/08 15:14:59;;;;;;;;;;;;;;;;;;137334;1276;22434;-80
2024/03/08 15:18:03;;;;;;;;;;;;;;;;;;137312;1276;22244;-79
2024/03/08 15:21:07;;;;;;;;;;;;;;;;;;137341;1276;22730;-78
2024/03/08 15:24:14;;;;;;;;;;;;;;;;;;137351;1276;22247;-80
2024/03/08 15:27:17;;;;;;;;;;;;;;;;;;137340;1276;22250;-79
2024/03/08 15:30:22;;;;;;;;;;;;;;;;;;137359;1276;22310;-79
2024/03/08 15:33:29;;;;;;;;;;;;;;;;;;137405;1276;22499;-80
2024/03/08 15:36:33;;;;;;;;;;;;;;;;;;137384;1276;22270;-79
2024/03/08 15:39:38;;;;;;;;;;;;;;;;;;137446;1276;22239;-79
2024/03/08 15:42:40;;;;;;;;;;;;;;;;;;137485;1276;22241;-78
2024/03/08 15:45:44;;;;;;;;;;;;;;;;;;137472;1276;22364;-79
2024/03/08 15:48:48;;;;;;;;;;;;;;;;;;137396;1276;22242;-79
2024/03/08 15:51:51;;;;;;;;;;;;;;;;;;137423;1276;22190;-80
2024/03/08 15:54:53;;;;;;;;;;;;;;;;;;137397;1276;22261;-77
2024/03/08 15:57:56;;;;;;;;;;;;;;;;;;137359;1276;22284;-78
2024/03/08 16:00:59;;;;;;;;;;;;;;;;;;137416;1276;22392;-80
2024/03/08 16:04:02;;;;;;;;;;;;;;;;;;137406;1276;22347;-79
2024/03/08 16:07:05;;;;;;;;;;;;;;;;;;137368;1276;22336;-80
2024/03/08 16:10:09;;;;;;;;;;;;;;;;;;137356;1276;22288;-79
2024/03/08 16:13:11;;;;;;;;;;;;;;;;;;137378;1276;22249;-79
2024/03/08 16:16:14;;;;;;;;;;;;;;;;;;137388;1276;22812;-79
2024/03/08 16:19:16;;;;;;;;;;;;;;;;;;137394;1276;22242;-78
2024/03/08 16:22:19;;;;;;;;;;;;;;;;;;137402;1276;22264;-81
2024/03/08 16:25:22;;;;;;;;;;;;;;;;;;137444;1276;22276;-79
2024/03/08 16:28:27;;;;;;;;;;;;;;;;;;137403;1276;22258;-80
2024/03/08 16:31:30;;;;;;;;;;;;;;;;;;137390;1276;22290;-80
2024/03/08 16:34:34;;;;;;;;;;;;;;;;;;137366;1276;22425;-80
2024/03/08 16:37:37;;;;;;;;;;;;;;;;;;137408;1276;22255;-82
2024/03/08 16:40:39;;;;;;;;;;;;;;;;;;137355;1276;22265;-82
2024/03/08 16:43:43;;;;;;;;;;;;;;;;;;137359;1276;22763;-83
2024/03/08 16:46:47;;;;;;;;;;;;;;;;;;137378;1276;22402;-84
2024/03/08 16:49:49;;;;;;;;;;;;;;;;;;137385;1276;22178;-84
2024/03/08 16:52:52;;;;;;;;;;;;;;;;;;137407;1276;22256;-84
2024/03/08 16:55:57;;;;;;;;;;;;;;;;;;137424;1276;22315;-79
2024/03/08 16:58:59;;;;;;;;;;;;;;;;;;137452;1276;22303;-82
2024/03/08 17:02:02;;;;;;;;;;;;;;;;;;137409;1276;22308;-81
2024/03/08 17:05:05;;;;;;;;;;;;;;;;;;137454;1276;22239;-81
2024/03/08 17:08:10;;;;;;;;;;;;;;;;;;137467;1276;22259;-81
2024/03/08 17:11:12;;;;;;;;;;;;;;;;;;137425;1276;22242;-82
2024/03/08 17:14:15;;;;;;;;;;;;;;;;;;137439;1262;22743;-82
2024/03/08 17:17:17;;;;;;;;;;;;;;;;;;137405;1270;22439;-82
2024/03/08 17:20:20;;;;;;;;;;;;;;;;;;137394;1276;22269;-82
2024/03/08 17:23:23;;;;;;;;;;;;;;;;;;137407;1276;22667;-82
2024/03/08 17:26:26;;;;;;;;;;;;;;;;;;137436;1276;22247;-82
2024/03/08 17:29:28;;;;;;;;;;;;;;;;;;137430;1276;22656;-81
2024/03/08 17:32:33;;;;;;;;;;;;;;;;;;137421;1276;22470;-81
2024/03/08 17:35:38;;;;;;;;;;;;;;;;;;137362;1276;22263;-81
2024/03/08 17:38:43;;;;;;;;;;;;;;;;;;137253;1276;22256;-81
2024/03/08 17:41:48;;;;;;;;;;;;;;;;;;137372;1276;22816;-82
2024/03/08 17:44:51;;;;;;;;;;;;;;;;;;137384;1276;22247;-80
2024/03/08 17:47:53;;;;;;;;;;;;;;;;;;137388;1276;22751;-81
2024/03/08 17:50:56;;;;;;;;;;;;;;;;;;137371;1276;22256;-81
2024/03/08 17:54:02;;;;;;;;;;;;;;;;;;137382;1276;22758;-80
2024/03/08 17:57:05;;;;;;;;;;;;;;;;;;137386;1276;22308;-80
2024/03/08 18:00:10;;;;;;;;;;;;;;;;;;137424;1276;22272;-81
2024/03/08 18:03:14;;;;;;;;;;;;;;;;;;137434;1276;22289;-82
2024/03/08 18:06:16;;;;;;;;;;;;;;;;;;137425;1276;22270;-79
2024/03/08 18:09:23;;;;;;;;;;;;;;;;;;137410;1276;22579;-80
2024/03/08 18:12:25;;;;;;;;;;;;;;;;;;137381;1276;22292;-80
2024/03/08 18:15:28;;;;;;;;;;;;;;;;;;137353;1276;22370;-78
2024/03/08 18:18:31;;;;;;;;;;;;;;;;;;137426;1276;22247;-78
2024/03/08 18:21:36;;;;;;;;;;;;;;;;;;137484;1276;22192;-78
2024/03/08 18:28:40;;;;;;;;;;;;;;;;;;132861;1310;545001;-76
2024/03/08 18:31:42;;;;;;;;;;;;;;;;;;136583;1284;22432;-77
2024/03/08 18:34:44;;;;;;;;;;;;;;;;;;136434;1285;22556;-76
2024/03/08 18:37:46;;;;;;;;;;;;;;;;;;136516;1281;22552;-76
2024/03/08 18:40:47;;;;;;;;;;;;;;;;;;136061;1271;171722;-77
2024/03/08 18:43:49;;;;;;;;;;;;;;;;;;136662;1279;22958;-77
2024/03/08 18:46:56;;;;;;;;;;;;;;;;;;137000;1279;22832;-77
2024/03/08 18:49:58;;;;;;;;;;;;;;;;;;136981;1279;23144;-77
2024/03/08 18:52:59;;;;;;;;;;;;;;;;;;136978;1279;22355;-77
2024/03/08 18:56:01;;;;;;;;;;;;;;;;;;136984;1279;22434;-76
2024/03/08 18:59:03;;;;;;;;;;;;;;;;;;136993;1279;22785;-77
2024/03/08 19:02:09;;;;;;;;;;;;;;;;;;136999;1279;22747;-77
2024/03/08 19:05:15;;;;;;;;;;;;;;;;;;136992;1279;22708;-77
2024/03/08 19:08:19;;;;;;;;;;;;;;;;;;136977;1279;22448;-77
2024/03/08 19:11:20;;;;;;;;;;;;;;;;;;136708;1279;22939;-78
2024/03/08 19:14:23;;;;;;;;;;;;;;;;;;136277;1279;22504;-80
2024/03/08 19:17:25;;;;;;;;;;;;;;;;;;136966;1279;23468;-77
2024/03/08 19:20:26;;;;;;;;;;;;;;;;;;136980;1279;22531;-77
2024/03/08 19:23:29;;;;;;;;;;;;;;;;;;136495;1279;22519;-77
2024/03/08 19:26:30;;;;;;;;;;;;;;;;;;136758;1279;22521;-77
2024/03/08 19:29:31;;;;;;;;;;;;;;;;;;136617;1279;22574;-79
2024/03/08 19:32:33;;;;;;;;;;;;;;;;;;137575;1262;22818;-79
2024/03/08 19:35:35;;;;;;;;;;;;;;;;;;137584;1273;22284;-78
2024/03/08 19:38:36;;;;;;;;;;;;;;;;;;137486;1273;22704;-78
2024/03/08 19:41:37;;;;;;;;;;;;;;;;;;137549;1274;23069;-78
2024/03/08 19:44:40;;;;;;;;;;;;;;;;;;137488;1274;22578;-79
2024/03/08 19:47:42;;;;;;;;;;;;;;;;;;137519;1274;22304;-80
2024/03/08 19:50:43;;;;;;;;;;;;;;;;;;136853;1274;22514;-77
2024/03/08 19:53:44;;;;;;;;;;;;;;;;;;137544;1274;22326;-78
2024/03/08 19:56:46;;;;;;;;;;;;;;;;;;137529;1274;22411;-78
2024/03/08 19:59:47;;;;;;;;;;;;;;;;;;136933;1274;22511;-78
2024/03/08 20:02:48;;;;;;;;;;;;;;;;;;136815;1274;22516;-79
2024/03/08 20:05:51;;;;;;;;;;;;;;;;;;137396;1274;23480;-78
2024/03/08 20:08:52;;;;;;;;;;;;;;;;;;137177;1274;22524;-79
2024/03/08 20:11:53;;;;;;;;;;;;;;;;;;137024;1274;22533;-78
2024/03/08 20:14:54;;;;;;;;;;;;;;;;;;137104;1274;22515;-78
2024/03/08 20:17:56;;;;;;;;;;;;;;;;;;137251;1274;22491;-79
2024/03/08 20:20:57;;;;;;;;;;;;;;;;;;136681;1274;23080;-79
2024/03/08 20:23:58;;;;;;;;;;;;;;;;;;137479;1274;23061;-79
2024/03/08 20:27:01;;;;;;;;;;;;;;;;;;137569;1274;22440;-79
2024/03/08 20:30:02;;;;;;;;;;;;;;;;;;137225;1274;22532;-78
2024/03/08 20:33:03;;;;;;;;;;;;;;;;;;136875;1274;22888;-79
2024/03/08 20:36:05;;;;;;;;;;;;;;;;;;137486;1269;22530;-79